sensor_id;sensor_type;location;lat;lon;timestamp;P1;durP1;ratioP1;P2;durP2;ratioP2
32469;SDS011;18925;48.356;10.864;2022-08-21T00:00:09;7.82;;;5.32;;
32469;SDS011;18925;48.356;10.864;2022-08-21T00:00:43;5.78;;;4.95;;
32469;SDS011;18925;48.356;10.864;2022-08-21T00:01:15;6.25;;;5.40;;
32469;SDS011;18925;48.356;10.864;2022-08-21T00:01:49;7.80;;;5.22;;
32469;SDS011;18925;48.356;10.864;2022-08-21T00:02:21;6.57;;;5.18;;
32469;SDS011;18925;48.356;10.864;2022-08-21T00:02:55;7.07;;;5.53;;
32469;SDS011;18925;48.356;10.864;2022-08-21T00:03:27;7.05;;;5.43;;
32469;SDS011;18925;48.356;10.864;2022-08-21T00:04:03;7.20;;;5.70;;
32469;SDS011;18925;48.356;10.864;2022-08-21T00:04:35;7.45;;;5.95;;
32469;SDS011;18925;48.356;10.864;2022-08-21T00:05:06;7.63;;;6.00;;
32469;SDS011;18925;48.356;10.864;2022-08-21T00:05:38;7.65;;;5.43;;
32469;SDS011;18925;48.356;10.864;2022-08-21T00:06:11;8.52;;;5.85;;
32469;SDS011;18925;48.356;10.864;2022-08-21T00:06:42;8.25;;;5.35;;
32469;SDS011;18925;48.356;10.864;2022-08-21T00:07:13;9.20;;;4.85;;
32469;SDS011;18925;48.356;10.864;2022-08-21T00:07:44;6.60;;;5.35;;
32469;SDS011;18925;48.356;10.864;2022-08-21T00:08:14;6.03;;;5.32;;
32469;SDS011;18925;48.356;10.864;2022-08-21T00:08:49;6.25;;;5.22;;
32469;SDS011;18925;48.356;10.864;2022-08-21T00:09:21;10.27;;;5.43;;
32469;SDS011;18925;48.356;10.864;2022-08-21T00:09:52;8.27;;;5.70;;
32469;SDS011;18925;48.356;10.864;2022-08-21T00:10:23;5.90;;;4.90;;
32469;SDS011;18925;48.356;10.864;2022-08-21T00:10:54;6.15;;;5.47;;
32469;SDS011;18925;48.356;10.864;2022-08-21T00:11:25;6.55;;;5.63;;
32469;SDS011;18925;48.356;10.864;2022-08-21T00:11:57;10.40;;;5.68;;
32469;SDS011;18925;48.356;10.864;2022-08-21T00:12:27;8.02;;;5.18;;
32469;SDS011;18925;48.356;10.864;2022-08-21T00:12:59;7.43;;;5.70;;
32469;SDS011;18925;48.356;10.864;2022-08-21T00:13:31;10.93;;;5.88;;
32469;SDS011;18925;48.356;10.864;2022-08-21T00:14:03;6.45;;;4.80;;
32469;SDS011;18925;48.356;10.864;2022-08-21T00:14:36;7.13;;;5.47;;
32469;SDS011;18925;48.356;10.864;2022-08-21T00:15:07;6.80;;;5.30;;
32469;SDS011;18925;48.356;10.864;2022-08-21T00:15:40;6.15;;;5.45;;
32469;SDS011;18925;48.356;10.864;2022-08-21T00:16:11;5.55;;;5.05;;
32469;SDS011;18925;48.356;10.864;2022-08-21T00:16:42;5.70;;;4.95;;
32469;SDS011;18925;48.356;10.864;2022-08-21T00:17:13;5.93;;;5.32;;
32469;SDS011;18925;48.356;10.864;2022-08-21T00:17:43;6.25;;;5.07;;
32469;SDS011;18925;48.356;10.864;2022-08-21T00:18:14;6.70;;;5.55;;
32469;SDS011;18925;48.356;10.864;2022-08-21T00:18:45;7.75;;;5.63;;
32469;SDS011;18925;48.356;10.864;2022-08-21T00:19:16;5.63;;;4.40;;
32469;SDS011;18925;48.356;10.864;2022-08-21T00:19:46;6.40;;;4.93;;
32469;SDS011;18925;48.356;10.864;2022-08-21T00:20:17;6.93;;;4.90;;
32469;SDS011;18925;48.356;10.864;2022-08-21T00:20:48;6.13;;;4.93;;
32469;SDS011;18925;48.356;10.864;2022-08-21T00:21:19;7.53;;;4.93;;
32469;SDS011;18925;48.356;10.864;2022-08-21T00:21:49;6.22;;;5.07;;
32469;SDS011;18925;48.356;10.864;2022-08-21T00:22:23;10.38;;;5.38;;
32469;SDS011;18925;48.356;10.864;2022-08-21T00:22:54;8.48;;;5.07;;
32469;SDS011;18925;48.356;10.864;2022-08-21T00:23:25;7.63;;;5.38;;
32469;SDS011;18925;48.356;10.864;2022-08-21T00:23:55;7.72;;;4.68;;
32469;SDS011;18925;48.356;10.864;2022-08-21T00:24:26;8.85;;;5.68;;
32469;SDS011;18925;48.356;10.864;2022-08-21T00:24:57;6.40;;;4.75;;
32469;SDS011;18925;48.356;10.864;2022-08-21T00:25:28;6.15;;;4.65;;
32469;SDS011;18925;48.356;10.864;2022-08-21T00:25:58;7.25;;;4.45;;
32469;SDS011;18925;48.356;10.864;2022-08-21T00:26:29;7.68;;;5.00;;
32469;SDS011;18925;48.356;10.864;2022-08-21T00:27:00;5.88;;;4.70;;
32469;SDS011;18925;48.356;10.864;2022-08-21T00:27:30;9.45;;;5.85;;
32469;SDS011;18925;48.356;10.864;2022-08-21T00:28:01;10.25;;;6.45;;
32469;SDS011;18925;48.356;10.864;2022-08-21T00:28:33;9.18;;;6.22;;
32469;SDS011;18925;48.356;10.864;2022-08-21T00:29:04;9.07;;;5.78;;
32469;SDS011;18925;48.356;10.864;2022-08-21T00:29:34;9.25;;;5.72;;
32469;SDS011;18925;48.356;10.864;2022-08-21T00:30:06;6.78;;;6.05;;
32469;SDS011;18925;48.356;10.864;2022-08-21T00:30:38;8.00;;;5.93;;
32469;SDS011;18925;48.356;10.864;2022-08-21T00:31:09;7.43;;;6.15;;
32469;SDS011;18925;48.356;10.864;2022-08-21T00:31:40;10.65;;;6.10;;
32469;SDS011;18925;48.356;10.864;2022-08-21T00:32:12;6.97;;;6.30;;
32469;SDS011;18925;48.356;10.864;2022-08-21T00:32:42;10.43;;;6.63;;
32469;SDS011;18925;48.356;10.864;2022-08-21T00:33:13;9.68;;;6.18;;
32469;SDS011;18925;48.356;10.864;2022-08-21T00:33:44;7.15;;;6.10;;
32469;SDS011;18925;48.356;10.864;2022-08-21T00:34:15;9.43;;;6.63;;
32469;SDS011;18925;48.356;10.864;2022-08-21T00:34:46;9.38;;;6.50;;
32469;SDS011;18925;48.356;10.864;2022-08-21T00:35:17;8.65;;;6.53;;
32469;SDS011;18925;48.356;10.864;2022-08-21T00:35:50;6.28;;;5.68;;
32469;SDS011;18925;48.356;10.864;2022-08-21T00:36:20;13.35;;;6.07;;
32469;SDS011;18925;48.356;10.864;2022-08-21T00:36:51;6.93;;;5.75;;
32469;SDS011;18925;48.356;10.864;2022-08-21T00:37:22;7.75;;;6.05;;
32469;SDS011;18925;48.356;10.864;2022-08-21T00:37:53;7.47;;;6.15;;
32469;SDS011;18925;48.356;10.864;2022-08-21T00:38:23;7.53;;;5.80;;
32469;SDS011;18925;48.356;10.864;2022-08-21T00:38:54;7.25;;;5.68;;
32469;SDS011;18925;48.356;10.864;2022-08-21T00:39:25;7.22;;;5.95;;
32469;SDS011;18925;48.356;10.864;2022-08-21T00:39:55;10.02;;;6.20;;
32469;SDS011;18925;48.356;10.864;2022-08-21T00:40:32;7.40;;;6.70;;
32469;SDS011;18925;48.356;10.864;2022-08-21T00:41:06;8.95;;;6.85;;
32469;SDS011;18925;48.356;10.864;2022-08-21T00:41:39;8.05;;;6.30;;
32469;SDS011;18925;48.356;10.864;2022-08-21T00:42:10;8.98;;;6.55;;
32469;SDS011;18925;48.356;10.864;2022-08-21T00:42:45;8.75;;;6.40;;
32469;SDS011;18925;48.356;10.864;2022-08-21T00:43:17;9.35;;;6.85;;
32469;SDS011;18925;48.356;10.864;2022-08-21T00:43:50;14.88;;;7.72;;
32469;SDS011;18925;48.356;10.864;2022-08-21T00:44:21;7.68;;;6.43;;
32469;SDS011;18925;48.356;10.864;2022-08-21T00:44:52;6.88;;;5.72;;
32469;SDS011;18925;48.356;10.864;2022-08-21T00:45:23;10.30;;;6.13;;
32469;SDS011;18925;48.356;10.864;2022-08-21T00:45:54;9.18;;;5.95;;
32469;SDS011;18925;48.356;10.864;2022-08-21T00:46:26;7.25;;;5.68;;
32469;SDS011;18925;48.356;10.864;2022-08-21T00:46:57;7.55;;;5.53;;
32469;SDS011;18925;48.356;10.864;2022-08-21T00:47:27;9.38;;;6.03;;
32469;SDS011;18925;48.356;10.864;2022-08-21T00:47:58;8.38;;;5.75;;
32469;SDS011;18925;48.356;10.864;2022-08-21T00:48:29;7.85;;;6.10;;
32469;SDS011;18925;48.356;10.864;2022-08-21T00:49:00;10.93;;;5.53;;
32469;SDS011;18925;48.356;10.864;2022-08-21T00:49:31;8.57;;;5.68;;
32469;SDS011;18925;48.356;10.864;2022-08-21T00:50:02;8.07;;;5.78;;
32469;SDS011;18925;48.356;10.864;2022-08-21T00:50:45;9.00;;;5.32;;
32469;SDS011;18925;48.356;10.864;2022-08-21T00:51:22;6.13;;;5.50;;
32469;SDS011;18925;48.356;10.864;2022-08-21T00:52:05;7.13;;;5.38;;
32469;SDS011;18925;48.356;10.864;2022-08-21T00:52:39;7.47;;;4.88;;
32469;SDS011;18925;48.356;10.864;2022-08-21T00:53:11;7.13;;;5.50;;
32469;SDS011;18925;48.356;10.864;2022-08-21T00:53:43;6.03;;;5.30;;
32469;SDS011;18925;48.356;10.864;2022-08-21T00:54:15;8.15;;;4.88;;
32469;SDS011;18925;48.356;10.864;2022-08-21T00:54:47;6.50;;;5.50;;
32469;SDS011;18925;48.356;10.864;2022-08-21T00:55:20;9.90;;;6.10;;
32469;SDS011;18925;48.356;10.864;2022-08-21T00:55:52;6.97;;;5.45;;
32469;SDS011;18925;48.356;10.864;2022-08-21T00:56:24;5.65;;;4.95;;
32469;SDS011;18925;48.356;10.864;2022-08-21T00:56:57;9.40;;;6.00;;
32469;SDS011;18925;48.356;10.864;2022-08-21T00:57:41;7.68;;;6.00;;
32469;SDS011;18925;48.356;10.864;2022-08-21T00:58:14;7.07;;;5.30;;
32469;SDS011;18925;48.356;10.864;2022-08-21T00:58:45;9.05;;;5.50;;
32469;SDS011;18925;48.356;10.864;2022-08-21T00:59:18;7.63;;;5.78;;
32469;SDS011;18925;48.356;10.864;2022-08-21T00:59:51;8.02;;;5.53;;
32469;SDS011;18925;48.356;10.864;2022-08-21T01:00:25;7.75;;;5.20;;
32469;SDS011;18925;48.356;10.864;2022-08-21T01:00:59;7.15;;;5.72;;
32469;SDS011;18925;48.356;10.864;2022-08-21T01:01:31;8.07;;;6.35;;
32469;SDS011;18925;48.356;10.864;2022-08-21T01:02:03;8.60;;;5.63;;
32469;SDS011;18925;48.356;10.864;2022-08-21T01:02:35;8.35;;;6.45;;
32469;SDS011;18925;48.356;10.864;2022-08-21T01:03:08;8.02;;;5.93;;
32469;SDS011;18925;48.356;10.864;2022-08-21T01:03:41;7.10;;;5.40;;
32469;SDS011;18925;48.356;10.864;2022-08-21T01:04:12;6.25;;;5.60;;
32469;SDS011;18925;48.356;10.864;2022-08-21T01:04:43;7.65;;;5.32;;
32469;SDS011;18925;48.356;10.864;2022-08-21T01:05:14;6.63;;;5.50;;
32469;SDS011;18925;48.356;10.864;2022-08-21T01:05:45;8.55;;;5.45;;
32469;SDS011;18925;48.356;10.864;2022-08-21T01:06:16;6.63;;;5.20;;
32469;SDS011;18925;48.356;10.864;2022-08-21T01:06:46;7.38;;;5.13;;
32469;SDS011;18925;48.356;10.864;2022-08-21T01:07:17;8.02;;;5.60;;
32469;SDS011;18925;48.356;10.864;2022-08-21T01:07:48;6.32;;;5.15;;
32469;SDS011;18925;48.356;10.864;2022-08-21T01:08:19;10.10;;;5.50;;
32469;SDS011;18925;48.356;10.864;2022-08-21T01:08:51;5.93;;;4.90;;
32469;SDS011;18925;48.356;10.864;2022-08-21T01:09:22;8.75;;;5.45;;
32469;SDS011;18925;48.356;10.864;2022-08-21T01:09:52;5.75;;;5.20;;
32469;SDS011;18925;48.356;10.864;2022-08-21T01:10:23;6.88;;;5.00;;
32469;SDS011;18925;48.356;10.864;2022-08-21T01:10:54;8.07;;;4.82;;
32469;SDS011;18925;48.356;10.864;2022-08-21T01:11:26;7.97;;;4.85;;
32469;SDS011;18925;48.356;10.864;2022-08-21T01:11:57;6.68;;;5.28;;
32469;SDS011;18925;48.356;10.864;2022-08-21T01:12:28;5.68;;;5.07;;
32469;SDS011;18925;48.356;10.864;2022-08-21T01:12:59;7.03;;;4.80;;
32469;SDS011;18925;48.356;10.864;2022-08-21T01:13:32;6.20;;;5.07;;
32469;SDS011;18925;48.356;10.864;2022-08-21T01:14:04;9.23;;;5.53;;
32469;SDS011;18925;48.356;10.864;2022-08-21T01:14:35;5.63;;;5.00;;
32469;SDS011;18925;48.356;10.864;2022-08-21T01:15:07;7.25;;;5.18;;
32469;SDS011;18925;48.356;10.864;2022-08-21T01:15:39;6.20;;;4.97;;
32469;SDS011;18925;48.356;10.864;2022-08-21T01:16:14;12.52;;;5.68;;
32469;SDS011;18925;48.356;10.864;2022-08-21T01:16:48;7.10;;;5.20;;
32469;SDS011;18925;48.356;10.864;2022-08-21T01:17:21;7.72;;;4.80;;
32469;SDS011;18925;48.356;10.864;2022-08-21T01:17:52;6.43;;;4.82;;
32469;SDS011;18925;48.356;10.864;2022-08-21T01:18:23;6.18;;;5.18;;
32469;SDS011;18925;48.356;10.864;2022-08-21T01:18:54;6.53;;;5.10;;
32469;SDS011;18925;48.356;10.864;2022-08-21T01:19:25;7.40;;;5.25;;
32469;SDS011;18925;48.356;10.864;2022-08-21T01:19:58;6.78;;;5.13;;
32469;SDS011;18925;48.356;10.864;2022-08-21T01:20:29;5.60;;;5.00;;
32469;SDS011;18925;48.356;10.864;2022-08-21T01:21:13;5.70;;;5.10;;
32469;SDS011;18925;48.356;10.864;2022-08-21T01:21:52;5.13;;;4.63;;
32469;SDS011;18925;48.356;10.864;2022-08-21T01:22:23;5.50;;;4.38;;
32469;SDS011;18925;48.356;10.864;2022-08-21T01:22:54;8.13;;;5.10;;
32469;SDS011;18925;48.356;10.864;2022-08-21T01:23:24;6.00;;;4.60;;
32469;SDS011;18925;48.356;10.864;2022-08-21T01:23:56;5.72;;;4.88;;
32469;SDS011;18925;48.356;10.864;2022-08-21T01:24:27;8.68;;;5.28;;
32469;SDS011;18925;48.356;10.864;2022-08-21T01:24:58;5.70;;;5.10;;
32469;SDS011;18925;48.356;10.864;2022-08-21T01:25:28;7.60;;;5.68;;
32469;SDS011;18925;48.356;10.864;2022-08-21T01:26:00;8.48;;;7.28;;
32469;SDS011;18925;48.356;10.864;2022-08-21T01:26:31;10.75;;;9.25;;
32469;SDS011;18925;48.356;10.864;2022-08-21T01:27:04;12.90;;;9.02;;
32469;SDS011;18925;48.356;10.864;2022-08-21T01:27:35;12.90;;;8.55;;
32469;SDS011;18925;48.356;10.864;2022-08-21T01:28:08;12.98;;;8.45;;
32469;SDS011;18925;48.356;10.864;2022-08-21T01:30:42;10.20;;;7.50;;
32469;SDS011;18925;48.356;10.864;2022-08-21T01:31:13;15.63;;;9.40;;
32469;SDS011;18925;48.356;10.864;2022-08-21T01:31:46;11.82;;;8.48;;
32469;SDS011;18925;48.356;10.864;2022-08-21T01:32:17;8.68;;;6.95;;
32469;SDS011;18925;48.356;10.864;2022-08-21T01:32:49;12.93;;;7.10;;
32469;SDS011;18925;48.356;10.864;2022-08-21T01:33:21;9.18;;;6.53;;
32469;SDS011;18925;48.356;10.864;2022-08-21T01:33:55;8.60;;;7.03;;
32469;SDS011;18925;48.356;10.864;2022-08-21T01:34:26;8.65;;;7.22;;
32469;SDS011;18925;48.356;10.864;2022-08-21T01:34:57;10.50;;;7.15;;
32469;SDS011;18925;48.356;10.864;2022-08-21T01:35:27;8.55;;;5.57;;
32469;SDS011;18925;48.356;10.864;2022-08-21T01:35:58;6.15;;;5.55;;
32469;SDS011;18925;48.356;10.864;2022-08-21T01:36:29;9.55;;;6.00;;
32469;SDS011;18925;48.356;10.864;2022-08-21T01:36:59;6.60;;;5.90;;
32469;SDS011;18925;48.356;10.864;2022-08-21T01:37:30;6.40;;;5.80;;
32469;SDS011;18925;48.356;10.864;2022-08-21T01:38:01;7.65;;;5.63;;
32469;SDS011;18925;48.356;10.864;2022-08-21T01:38:31;6.18;;;5.47;;
32469;SDS011;18925;48.356;10.864;2022-08-21T01:39:03;6.32;;;5.10;;
32469;SDS011;18925;48.356;10.864;2022-08-21T01:39:35;8.40;;;5.38;;
32469;SDS011;18925;48.356;10.864;2022-08-21T01:40:06;10.00;;;6.40;;
32469;SDS011;18925;48.356;10.864;2022-08-21T01:40:38;7.45;;;5.88;;
32469;SDS011;18925;48.356;10.864;2022-08-21T01:41:09;7.47;;;4.93;;
32469;SDS011;18925;48.356;10.864;2022-08-21T01:41:40;6.85;;;5.25;;
32469;SDS011;18925;48.356;10.864;2022-08-21T01:42:11;9.35;;;5.65;;
32469;SDS011;18925;48.356;10.864;2022-08-21T01:42:42;6.70;;;5.15;;
32469;SDS011;18925;48.356;10.864;2022-08-21T01:43:13;8.55;;;5.38;;
32469;SDS011;18925;48.356;10.864;2022-08-21T01:43:44;6.63;;;5.78;;
32469;SDS011;18925;48.356;10.864;2022-08-21T01:44:15;5.85;;;5.22;;
32469;SDS011;18925;48.356;10.864;2022-08-21T01:44:45;8.25;;;5.47;;
32469;SDS011;18925;48.356;10.864;2022-08-21T01:45:16;5.40;;;4.88;;
32469;SDS011;18925;48.356;10.864;2022-08-21T01:45:47;6.60;;;5.25;;
32469;SDS011;18925;48.356;10.864;2022-08-21T01:46:17;8.27;;;5.30;;
32469;SDS011;18925;48.356;10.864;2022-08-21T01:46:48;7.80;;;5.30;;
32469;SDS011;18925;48.356;10.864;2022-08-21T01:47:20;6.95;;;4.82;;
32469;SDS011;18925;48.356;10.864;2022-08-21T01:47:50;7.38;;;5.32;;
32469;SDS011;18925;48.356;10.864;2022-08-21T01:48:21;6.03;;;5.43;;
32469;SDS011;18925;48.356;10.864;2022-08-21T01:48:52;8.82;;;5.50;;
32469;SDS011;18925;48.356;10.864;2022-08-21T01:49:22;7.68;;;5.30;;
32469;SDS011;18925;48.356;10.864;2022-08-21T01:49:53;9.32;;;5.72;;
32469;SDS011;18925;48.356;10.864;2022-08-21T01:50:23;6.53;;;5.88;;
32469;SDS011;18925;48.356;10.864;2022-08-21T01:50:54;5.90;;;5.30;;
32469;SDS011;18925;48.356;10.864;2022-08-21T01:51:25;7.45;;;5.03;;
32469;SDS011;18925;48.356;10.864;2022-08-21T01:51:56;10.10;;;5.05;;
32469;SDS011;18925;48.356;10.864;2022-08-21T01:52:28;7.95;;;5.20;;
32469;SDS011;18925;48.356;10.864;2022-08-21T01:52:59;8.02;;;5.70;;
32469;SDS011;18925;48.356;10.864;2022-08-21T01:53:29;5.35;;;4.80;;
32469;SDS011;18925;48.356;10.864;2022-08-21T01:54:00;5.40;;;4.90;;
32469;SDS011;18925;48.356;10.864;2022-08-21T01:54:31;5.65;;;5.15;;
32469;SDS011;18925;48.356;10.864;2022-08-21T01:55:04;6.70;;;5.03;;
32469;SDS011;18925;48.356;10.864;2022-08-21T01:55:36;11.00;;;6.00;;
32469;SDS011;18925;48.356;10.864;2022-08-21T01:56:07;10.20;;;5.20;;
32469;SDS011;18925;48.356;10.864;2022-08-21T01:56:42;9.38;;;6.40;;
32469;SDS011;18925;48.356;10.864;2022-08-21T01:57:15;8.02;;;5.97;;
32469;SDS011;18925;48.356;10.864;2022-08-21T01:57:46;12.13;;;5.97;;
32469;SDS011;18925;48.356;10.864;2022-08-21T01:58:17;11.13;;;6.70;;
32469;SDS011;18925;48.356;10.864;2022-08-21T01:58:48;11.00;;;6.22;;
32469;SDS011;18925;48.356;10.864;2022-08-21T01:59:19;7.82;;;7.03;;
32469;SDS011;18925;48.356;10.864;2022-08-21T01:59:50;10.65;;;7.03;;
32469;SDS011;18925;48.356;10.864;2022-08-21T02:00:22;9.55;;;6.32;;
32469;SDS011;18925;48.356;10.864;2022-08-21T02:00:53;11.57;;;6.63;;
32469;SDS011;18925;48.356;10.864;2022-08-21T02:01:24;7.32;;;6.10;;
32469;SDS011;18925;48.356;10.864;2022-08-21T02:01:54;8.13;;;6.80;;
32469;SDS011;18925;48.356;10.864;2022-08-21T02:02:25;7.75;;;6.35;;
32469;SDS011;18925;48.356;10.864;2022-08-21T02:02:56;8.32;;;6.32;;
32469;SDS011;18925;48.356;10.864;2022-08-21T02:03:27;6.65;;;5.78;;
32469;SDS011;18925;48.356;10.864;2022-08-21T02:03:58;5.90;;;5.32;;
32469;SDS011;18925;48.356;10.864;2022-08-21T02:04:29;7.35;;;5.75;;
32469;SDS011;18925;48.356;10.864;2022-08-21T02:05:00;10.40;;;6.75;;
32469;SDS011;18925;48.356;10.864;2022-08-21T02:05:31;10.57;;;5.93;;
32469;SDS011;18925;48.356;10.864;2022-08-21T02:06:05;9.00;;;6.95;;
32469;SDS011;18925;48.356;10.864;2022-08-21T02:06:37;7.18;;;6.47;;
32469;SDS011;18925;48.356;10.864;2022-08-21T02:07:08;7.47;;;6.07;;
32469;SDS011;18925;48.356;10.864;2022-08-21T02:07:41;12.95;;;6.63;;
32469;SDS011;18925;48.356;10.864;2022-08-21T02:08:13;9.57;;;5.50;;
32469;SDS011;18925;48.356;10.864;2022-08-21T02:08:44;8.02;;;6.80;;
32469;SDS011;18925;48.356;10.864;2022-08-21T02:09:16;8.00;;;6.15;;
32469;SDS011;18925;48.356;10.864;2022-08-21T02:09:46;12.18;;;6.25;;
32469;SDS011;18925;48.356;10.864;2022-08-21T02:10:22;8.85;;;6.32;;
32469;SDS011;18925;48.356;10.864;2022-08-21T02:10:58;6.63;;;4.88;;
32469;SDS011;18925;48.356;10.864;2022-08-21T02:11:30;11.20;;;5.90;;
32469;SDS011;18925;48.356;10.864;2022-08-21T02:12:01;8.77;;;5.88;;
32469;SDS011;18925;48.356;10.864;2022-08-21T02:12:32;10.27;;;5.40;;
32469;SDS011;18925;48.356;10.864;2022-08-21T02:13:02;8.90;;;5.93;;
32469;SDS011;18925;48.356;10.864;2022-08-21T02:13:33;7.93;;;5.00;;
32469;SDS011;18925;48.356;10.864;2022-08-21T02:14:04;6.40;;;5.45;;
32469;SDS011;18925;48.356;10.864;2022-08-21T02:14:35;6.68;;;5.85;;
32469;SDS011;18925;48.356;10.864;2022-08-21T02:15:06;6.15;;;5.20;;
32469;SDS011;18925;48.356;10.864;2022-08-21T02:15:39;8.05;;;5.40;;
32469;SDS011;18925;48.356;10.864;2022-08-21T02:16:10;6.15;;;4.97;;
32469;SDS011;18925;48.356;10.864;2022-08-21T02:16:42;10.98;;;5.63;;
32469;SDS011;18925;48.356;10.864;2022-08-21T02:17:13;7.22;;;5.60;;
32469;SDS011;18925;48.356;10.864;2022-08-21T02:17:46;8.68;;;6.20;;
32469;SDS011;18925;48.356;10.864;2022-08-21T02:18:21;11.73;;;5.65;;
32469;SDS011;18925;48.356;10.864;2022-08-21T02:18:53;7.20;;;5.47;;
32469;SDS011;18925;48.356;10.864;2022-08-21T02:19:23;8.02;;;6.15;;
32469;SDS011;18925;48.356;10.864;2022-08-21T02:19:54;8.18;;;6.28;;
32469;SDS011;18925;48.356;10.864;2022-08-21T02:20:32;7.28;;;5.80;;
32469;SDS011;18925;48.356;10.864;2022-08-21T02:21:06;6.55;;;5.85;;
32469;SDS011;18925;48.356;10.864;2022-08-21T02:21:37;7.90;;;5.50;;
32469;SDS011;18925;48.356;10.864;2022-08-21T02:22:08;8.60;;;6.28;;
32469;SDS011;18925;48.356;10.864;2022-08-21T02:22:40;6.38;;;5.63;;
32469;SDS011;18925;48.356;10.864;2022-08-21T02:23:11;10.50;;;6.57;;
32469;SDS011;18925;48.356;10.864;2022-08-21T02:23:43;8.57;;;6.28;;
32469;SDS011;18925;48.356;10.864;2022-08-21T02:24:14;9.15;;;6.13;;
32469;SDS011;18925;48.356;10.864;2022-08-21T02:24:44;9.63;;;6.13;;
32469;SDS011;18925;48.356;10.864;2022-08-21T02:25:15;5.70;;;4.95;;
32469;SDS011;18925;48.356;10.864;2022-08-21T02:25:46;6.50;;;5.25;;
32469;SDS011;18925;48.356;10.864;2022-08-21T02:26:17;6.22;;;5.05;;
32469;SDS011;18925;48.356;10.864;2022-08-21T02:26:48;6.80;;;5.25;;
32469;SDS011;18925;48.356;10.864;2022-08-21T02:27:18;5.82;;;4.95;;
32469;SDS011;18925;48.356;10.864;2022-08-21T02:27:49;11.10;;;5.40;;
32469;SDS011;18925;48.356;10.864;2022-08-21T02:28:20;12.02;;;5.40;;
32469;SDS011;18925;48.356;10.864;2022-08-21T02:28:51;9.48;;;5.57;;
32469;SDS011;18925;48.356;10.864;2022-08-21T02:29:22;5.95;;;5.35;;
32469;SDS011;18925;48.356;10.864;2022-08-21T02:29:53;7.35;;;6.20;;
32469;SDS011;18925;48.356;10.864;2022-08-21T02:30:27;8.77;;;5.78;;
32469;SDS011;18925;48.356;10.864;2022-08-21T02:31:00;8.27;;;5.97;;
32469;SDS011;18925;48.356;10.864;2022-08-21T02:31:32;7.38;;;5.85;;
32469;SDS011;18925;48.356;10.864;2022-08-21T02:32:02;6.03;;;5.43;;
32469;SDS011;18925;48.356;10.864;2022-08-21T02:32:33;9.52;;;5.93;;
32469;SDS011;18925;48.356;10.864;2022-08-21T02:33:04;9.15;;;5.90;;
32469;SDS011;18925;48.356;10.864;2022-08-21T02:33:35;7.05;;;5.25;;
32469;SDS011;18925;48.356;10.864;2022-08-21T02:34:06;11.00;;;5.40;;
32469;SDS011;18925;48.356;10.864;2022-08-21T02:34:37;10.10;;;5.63;;
32469;SDS011;18925;48.356;10.864;2022-08-21T02:35:08;8.85;;;6.53;;
32469;SDS011;18925;48.356;10.864;2022-08-21T02:35:40;11.95;;;6.70;;
32469;SDS011;18925;48.356;10.864;2022-08-21T02:36:12;10.40;;;6.47;;
32469;SDS011;18925;48.356;10.864;2022-08-21T02:36:43;6.38;;;5.53;;
32469;SDS011;18925;48.356;10.864;2022-08-21T02:37:13;8.98;;;5.07;;
32469;SDS011;18925;48.356;10.864;2022-08-21T02:37:45;9.52;;;5.70;;
32469;SDS011;18925;48.356;10.864;2022-08-21T02:38:20;9.85;;;6.00;;
32469;SDS011;18925;48.356;10.864;2022-08-21T02:38:53;17.13;;;7.43;;
32469;SDS011;18925;48.356;10.864;2022-08-21T02:39:24;9.88;;;7.18;;
32469;SDS011;18925;48.356;10.864;2022-08-21T02:39:54;8.98;;;7.55;;
32469;SDS011;18925;48.356;10.864;2022-08-21T02:40:26;10.40;;;6.85;;
32469;SDS011;18925;48.356;10.864;2022-08-21T02:41:00;7.75;;;7.00;;
32469;SDS011;18925;48.356;10.864;2022-08-21T02:41:31;12.35;;;8.15;;
32469;SDS011;18925;48.356;10.864;2022-08-21T02:42:02;10.65;;;7.30;;
32469;SDS011;18925;48.356;10.864;2022-08-21T02:42:32;9.63;;;7.38;;
32469;SDS011;18925;48.356;10.864;2022-08-21T02:43:04;8.88;;;6.40;;
32469;SDS011;18925;48.356;10.864;2022-08-21T02:43:36;11.10;;;5.82;;
32469;SDS011;18925;48.356;10.864;2022-08-21T02:44:06;8.50;;;6.45;;
32469;SDS011;18925;48.356;10.864;2022-08-21T02:44:37;7.30;;;6.28;;
32469;SDS011;18925;48.356;10.864;2022-08-21T02:45:07;11.40;;;6.93;;
32469;SDS011;18925;48.356;10.864;2022-08-21T02:45:38;9.93;;;6.40;;
32469;SDS011;18925;48.356;10.864;2022-08-21T02:46:10;7.82;;;6.93;;
32469;SDS011;18925;48.356;10.864;2022-08-21T02:46:42;11.40;;;7.15;;
32469;SDS011;18925;48.356;10.864;2022-08-21T02:47:13;8.70;;;7.40;;
32469;SDS011;18925;48.356;10.864;2022-08-21T02:47:48;10.15;;;7.50;;
32469;SDS011;18925;48.356;10.864;2022-08-21T02:48:21;9.05;;;7.57;;
32469;SDS011;18925;48.356;10.864;2022-08-21T02:48:53;8.73;;;7.15;;
32469;SDS011;18925;48.356;10.864;2022-08-21T02:49:24;9.77;;;7.35;;
32469;SDS011;18925;48.356;10.864;2022-08-21T02:49:54;11.68;;;7.10;;
32469;SDS011;18925;48.356;10.864;2022-08-21T02:50:26;9.48;;;7.03;;
32469;SDS011;18925;48.356;10.864;2022-08-21T02:51:35;13.02;;;8.20;;
32469;SDS011;18925;48.356;10.864;2022-08-21T02:52:05;11.50;;;7.57;;
32469;SDS011;18925;48.356;10.864;2022-08-21T02:52:36;11.18;;;7.97;;
32469;SDS011;18925;48.356;10.864;2022-08-21T02:53:07;10.38;;;7.40;;
32469;SDS011;18925;48.356;10.864;2022-08-21T02:53:40;11.63;;;8.00;;
32469;SDS011;18925;48.356;10.864;2022-08-21T02:54:11;9.77;;;7.78;;
32469;SDS011;18925;48.356;10.864;2022-08-21T02:54:42;15.13;;;8.13;;
32469;SDS011;18925;48.356;10.864;2022-08-21T02:55:12;9.85;;;7.53;;
32469;SDS011;18925;48.356;10.864;2022-08-21T02:55:44;9.25;;;7.22;;
32469;SDS011;18925;48.356;10.864;2022-08-21T02:56:18;10.05;;;7.80;;
32469;SDS011;18925;48.356;10.864;2022-08-21T02:56:51;11.43;;;8.25;;
32469;SDS011;18925;48.356;10.864;2022-08-21T02:57:22;11.18;;;6.85;;
32469;SDS011;18925;48.356;10.864;2022-08-21T02:57:53;9.85;;;7.85;;
32469;SDS011;18925;48.356;10.864;2022-08-21T02:58:29;11.70;;;7.85;;
32469;SDS011;18925;48.356;10.864;2022-08-21T02:59:03;8.70;;;7.25;;
32469;SDS011;18925;48.356;10.864;2022-08-21T02:59:34;11.27;;;7.88;;
32469;SDS011;18925;48.356;10.864;2022-08-21T03:00:05;12.50;;;8.00;;
32469;SDS011;18925;48.356;10.864;2022-08-21T03:00:37;8.50;;;7.60;;
32469;SDS011;18925;48.356;10.864;2022-08-21T03:01:08;9.68;;;7.03;;
32469;SDS011;18925;48.356;10.864;2022-08-21T03:01:39;10.23;;;7.43;;
32469;SDS011;18925;48.356;10.864;2022-08-21T03:02:10;12.38;;;7.85;;
32469;SDS011;18925;48.356;10.864;2022-08-21T03:02:41;7.15;;;6.22;;
32469;SDS011;18925;48.356;10.864;2022-08-21T03:03:12;9.00;;;5.70;;
32469;SDS011;18925;48.356;10.864;2022-08-21T03:03:44;10.40;;;7.30;;
32469;SDS011;18925;48.356;10.864;2022-08-21T03:04:16;8.27;;;6.93;;
32469;SDS011;18925;48.356;10.864;2022-08-21T03:04:47;8.82;;;5.95;;
32469;SDS011;18925;48.356;10.864;2022-08-21T03:05:17;7.90;;;6.55;;
32469;SDS011;18925;48.356;10.864;2022-08-21T03:05:48;8.68;;;7.03;;
32469;SDS011;18925;48.356;10.864;2022-08-21T03:06:21;10.25;;;6.03;;
32469;SDS011;18925;48.356;10.864;2022-08-21T03:06:52;11.25;;;6.35;;
32469;SDS011;18925;48.356;10.864;2022-08-21T03:07:22;13.88;;;6.90;;
32469;SDS011;18925;48.356;10.864;2022-08-21T03:07:54;13.25;;;7.55;;
32469;SDS011;18925;48.356;10.864;2022-08-21T03:08:24;10.60;;;7.60;;
32469;SDS011;18925;48.356;10.864;2022-08-21T03:08:55;10.25;;;7.63;;
32469;SDS011;18925;48.356;10.864;2022-08-21T03:09:27;12.10;;;7.32;;
32469;SDS011;18925;48.356;10.864;2022-08-21T03:09:58;10.63;;;7.65;;